sensor_id;sensor_type;location;lat;lon;timestamp;P1;durP1;ratioP1;P2;durP2;ratioP2
11054;SDS011;5580;50.106;8.702;2024-03-02T00:00:24;15.73;;;9.70;;
11054;SDS011;5580;50.106;8.702;2024-03-02T00:02:51;16.57;;;9.63;;
11054;SDS011;5580;50.106;8.702;2024-03-02T00:05:18;15.10;;;9.60;;
11054;SDS011;5580;50.106;8.702;2024-03-02T00:07:54;14.70;;;9.83;;
11054;SDS011;5580;50.106;8.702;2024-03-02T00:10:22;14.40;;;9.63;;
11054;SDS011;5580;50.106;8.702;2024-03-02T00:12:56;15.87;;;10.00;;
11054;SDS011;5580;50.106;8.702;2024-03-02T00:18:00;14.60;;;9.90;;
11054;SDS011;5580;50.106;8.702;2024-03-02T00:20:26;15.10;;;9.60;;
11054;SDS011;5580;50.106;8.702;2024-03-02T00:23:01;14.50;;;9.30;;
11054;SDS011;5580;50.106;8.702;2024-03-02T00:25:51;16.73;;;10.73;;
11054;SDS011;5580;50.106;8.702;2024-03-02T00:33:50;20.60;;;12.00;;
11054;SDS011;5580;50.106;8.702;2024-03-02T00:36:16;18.87;;;12.17;;
11054;SDS011;5580;50.106;8.702;2024-03-02T00:38:52;20.07;;;12.30;;
11054;SDS011;5580;50.106;8.702;2024-03-02T00:41:22;18.27;;;11.87;;
11054;SDS011;5580;50.106;8.702;2024-03-02T00:43:58;21.63;;;12.93;;
11054;SDS011;5580;50.106;8.702;2024-03-02T00:46:36;21.07;;;13.13;;
11054;SDS011;5580;50.106;8.702;2024-03-02T00:51:42;20.27;;;13.47;;
11054;SDS011;5580;50.106;8.702;2024-03-02T00:54:13;20.73;;;13.17;;
11054;SDS011;5580;50.106;8.702;2024-03-02T00:56:40;19.83;;;13.43;;
11054;SDS011;5580;50.106;8.702;2024-03-02T00:59:07;19.50;;;12.90;;
11054;SDS011;5580;50.106;8.702;2024-03-02T01:01:33;19.57;;;13.53;;
11054;SDS011;5580;50.106;8.702;2024-03-02T01:03:59;20.33;;;13.20;;
11054;SDS011;5580;50.106;8.702;2024-03-02T01:06:25;21.77;;;13.33;;
11054;SDS011;5580;50.106;8.702;2024-03-02T01:08:51;22.30;;;13.57;;
11054;SDS011;5580;50.106;8.702;2024-03-02T01:11:16;21.43;;;13.87;;
11054;SDS011;5580;50.106;8.702;2024-03-02T01:13:43;22.23;;;14.47;;
11054;SDS011;5580;50.106;8.702;2024-03-02T01:16:09;21.30;;;13.80;;
11054;SDS011;5580;50.106;8.702;2024-03-02T01:18:35;22.00;;;13.50;;
11054;SDS011;5580;50.106;8.702;2024-03-02T01:21:00;20.77;;;13.70;;
11054;SDS011;5580;50.106;8.702;2024-03-02T01:23:26;21.23;;;13.60;;
11054;SDS011;5580;50.106;8.702;2024-03-02T01:25:52;20.10;;;13.43;;
11054;SDS011;5580;50.106;8.702;2024-03-02T01:28:18;21.23;;;13.93;;
11054;SDS011;5580;50.106;8.702;2024-03-02T01:30:46;20.50;;;13.67;;
11054;SDS011;5580;50.106;8.702;2024-03-02T01:33:12;19.67;;;12.97;;
11054;SDS011;5580;50.106;8.702;2024-03-02T01:35:38;18.73;;;12.77;;
11054;SDS011;5580;50.106;8.702;2024-03-02T01:38:04;20.77;;;13.13;;
11054;SDS011;5580;50.106;8.702;2024-03-02T01:40:35;21.23;;;14.30;;
11054;SDS011;5580;50.106;8.702;2024-03-02T01:43:01;20.17;;;13.60;;
11054;SDS011;5580;50.106;8.702;2024-03-02T01:45:28;21.30;;;13.87;;
11054;SDS011;5580;50.106;8.702;2024-03-02T01:47:54;22.57;;;13.83;;
11054;SDS011;5580;50.106;8.702;2024-03-02T01:50:27;22.50;;;13.90;;
11054;SDS011;5580;50.106;8.702;2024-03-02T01:52:53;22.20;;;14.20;;
11054;SDS011;5580;50.106;8.702;2024-03-02T01:55:20;21.47;;;13.83;;
11054;SDS011;5580;50.106;8.702;2024-03-02T01:57:46;20.80;;;13.50;;
11054;SDS011;5580;50.106;8.702;2024-03-02T02:00:13;20.80;;;13.60;;
11054;SDS011;5580;50.106;8.702;2024-03-02T02:02:39;23.07;;;13.73;;
11054;SDS011;5580;50.106;8.702;2024-03-02T02:05:05;22.13;;;14.00;;
11054;SDS011;5580;50.106;8.702;2024-03-02T02:07:30;19.33;;;13.40;;
11054;SDS011;5580;50.106;8.702;2024-03-02T02:09:56;20.90;;;13.40;;
11054;SDS011;5580;50.106;8.702;2024-03-02T02:12:22;22.20;;;14.43;;
11054;SDS011;5580;50.106;8.702;2024-03-02T02:14:48;21.83;;;14.40;;
11054;SDS011;5580;50.106;8.702;2024-03-02T02:17:15;22.70;;;15.37;;
11054;SDS011;5580;50.106;8.702;2024-03-02T02:19:41;22.90;;;14.87;;
11054;SDS011;5580;50.106;8.702;2024-03-02T02:22:07;22.80;;;15.90;;
11054;SDS011;5580;50.106;8.702;2024-03-02T02:24:36;22.73;;;14.70;;
11054;SDS011;5580;50.106;8.702;2024-03-02T02:27:04;22.43;;;14.97;;
11054;SDS011;5580;50.106;8.702;2024-03-02T02:29:30;22.90;;;15.20;;
11054;SDS011;5580;50.106;8.702;2024-03-02T02:31:55;21.53;;;14.80;;
11054;SDS011;5580;50.106;8.702;2024-03-02T02:34:21;24.30;;;15.50;;
11054;SDS011;5580;50.106;8.702;2024-03-02T02:36:46;23.07;;;15.20;;
11054;SDS011;5580;50.106;8.702;2024-03-02T02:39:13;23.43;;;14.77;;
11054;SDS011;5580;50.106;8.702;2024-03-02T02:41:41;24.50;;;15.77;;
11054;SDS011;5580;50.106;8.702;2024-03-02T02:44:07;22.93;;;15.70;;
11054;SDS011;5580;50.106;8.702;2024-03-02T02:46:33;23.07;;;15.83;;
11054;SDS011;5580;50.106;8.702;2024-03-02T02:48:58;23.63;;;15.60;;
11054;SDS011;5580;50.106;8.702;2024-03-02T02:51:24;23.83;;;15.40;;
11054;SDS011;5580;50.106;8.702;2024-03-02T02:53:50;22.60;;;15.57;;
11054;SDS011;5580;50.106;8.702;2024-03-02T02:56:16;22.87;;;16.13;;
11054;SDS011;5580;50.106;8.702;2024-03-02T02:58:42;23.83;;;15.83;;
11054;SDS011;5580;50.106;8.702;2024-03-02T03:01:07;25.03;;;15.67;;
11054;SDS011;5580;50.106;8.702;2024-03-02T03:03:33;22.30;;;15.60;;
11054;SDS011;5580;50.106;8.702;2024-03-02T03:05:59;25.77;;;16.10;;
11054;SDS011;5580;50.106;8.702;2024-03-02T03:08:24;25.50;;;15.50;;
11054;SDS011;5580;50.106;8.702;2024-03-02T03:10:50;24.13;;;15.67;;
11054;SDS011;5580;50.106;8.702;2024-03-02T03:13:15;28.87;;;17.53;;
11054;SDS011;5580;50.106;8.702;2024-03-02T03:15:41;24.07;;;15.77;;
11054;SDS011;5580;50.106;8.702;2024-03-02T03:18:07;27.20;;;16.10;;
11054;SDS011;5580;50.106;8.702;2024-03-02T03:20:32;25.87;;;16.50;;
11054;SDS011;5580;50.106;8.702;2024-03-02T03:22:59;25.10;;;16.80;;
11054;SDS011;5580;50.106;8.702;2024-03-02T03:25:25;26.43;;;16.90;;
11054;SDS011;5580;50.106;8.702;2024-03-02T03:27:50;25.60;;;16.77;;
11054;SDS011;5580;50.106;8.702;2024-03-02T03:30:19;24.83;;;16.10;;
11054;SDS011;5580;50.106;8.702;2024-03-02T03:32:44;26.00;;;16.63;;
11054;SDS011;5580;50.106;8.702;2024-03-02T03:35:10;23.50;;;15.53;;
11054;SDS011;5580;50.106;8.702;2024-03-02T03:37:37;25.70;;;16.17;;
11054;SDS011;5580;50.106;8.702;2024-03-02T03:40:03;25.30;;;16.40;;
11054;SDS011;5580;50.106;8.702;2024-03-02T03:42:34;25.33;;;16.23;;
11054;SDS011;5580;50.106;8.702;2024-03-02T03:45:04;34.53;;;19.47;;
11054;SDS011;5580;50.106;8.702;2024-03-02T03:47:33;32.17;;;18.67;;
11054;SDS011;5580;50.106;8.702;2024-03-02T03:49:58;34.03;;;17.97;;
11054;SDS011;5580;50.106;8.702;2024-03-02T03:52:24;27.07;;;17.80;;
11054;SDS011;5580;50.106;8.702;2024-03-02T03:54:50;29.17;;;17.77;;
11054;SDS011;5580;50.106;8.702;2024-03-02T03:57:16;24.90;;;16.83;;
11054;SDS011;5580;50.106;8.702;2024-03-02T03:59:42;27.40;;;18.23;;
11054;SDS011;5580;50.106;8.702;2024-03-02T04:02:08;25.80;;;17.37;;
11054;SDS011;5580;50.106;8.702;2024-03-02T04:04:34;25.70;;;17.30;;
11054;SDS011;5580;50.106;8.702;2024-03-02T04:07:00;26.67;;;17.00;;
11054;SDS011;5580;50.106;8.702;2024-03-02T04:09:25;27.67;;;17.40;;
11054;SDS011;5580;50.106;8.702;2024-03-02T04:11:51;26.33;;;17.60;;
11054;SDS011;5580;50.106;8.702;2024-03-02T04:14:16;29.20;;;19.07;;
11054;SDS011;5580;50.106;8.702;2024-03-02T04:16:42;28.90;;;18.67;;
11054;SDS011;5580;50.106;8.702;2024-03-02T04:19:08;25.90;;;18.00;;
11054;SDS011;5580;50.106;8.702;2024-03-02T04:21:33;25.63;;;17.90;;
11054;SDS011;5580;50.106;8.702;2024-03-02T04:23:59;26.27;;;17.83;;
11054;SDS011;5580;50.106;8.702;2024-03-02T04:26:25;25.63;;;17.40;;
11054;SDS011;5580;50.106;8.702;2024-03-02T04:28:51;28.97;;;18.13;;
11054;SDS011;5580;50.106;8.702;2024-03-02T04:31:17;26.27;;;17.67;;
11054;SDS011;5580;50.106;8.702;2024-03-02T04:33:43;27.70;;;18.20;;
11054;SDS011;5580;50.106;8.702;2024-03-02T04:36:08;28.73;;;18.73;;
11054;SDS011;5580;50.106;8.702;2024-03-02T04:38:34;29.90;;;18.93;;
11054;SDS011;5580;50.106;8.702;2024-03-02T04:41:00;28.57;;;18.77;;
11054;SDS011;5580;50.106;8.702;2024-03-02T04:43:26;26.77;;;18.07;;
11054;SDS011;5580;50.106;8.702;2024-03-02T04:45:51;26.87;;;18.50;;
11054;SDS011;5580;50.106;8.702;2024-03-02T04:48:17;28.13;;;18.00;;
11054;SDS011;5580;50.106;8.702;2024-03-02T04:50:43;28.03;;;18.43;;
11054;SDS011;5580;50.106;8.702;2024-03-02T04:53:08;29.80;;;19.10;;
11054;SDS011;5580;50.106;8.702;2024-03-02T04:55:34;29.50;;;19.13;;
11054;SDS011;5580;50.106;8.702;2024-03-02T04:57:59;30.80;;;19.13;;
11054;SDS011;5580;50.106;8.702;2024-03-02T05:00:25;30.10;;;18.97;;
11054;SDS011;5580;50.106;8.702;2024-03-02T05:02:50;29.67;;;19.80;;
11054;SDS011;5580;50.106;8.702;2024-03-02T05:05:16;30.03;;;20.10;;
11054;SDS011;5580;50.106;8.702;2024-03-02T05:07:42;32.00;;;19.70;;
11054;SDS011;5580;50.106;8.702;2024-03-02T05:10:09;29.30;;;19.13;;
11054;SDS011;5580;50.106;8.702;2024-03-02T05:12:34;33.83;;;19.50;;
11054;SDS011;5580;50.106;8.702;2024-03-02T05:15:00;29.17;;;19.17;;
11054;SDS011;5580;50.106;8.702;2024-03-02T05:17:27;28.13;;;18.37;;
11054;SDS011;5580;50.106;8.702;2024-03-02T05:19:52;30.67;;;19.80;;
11054;SDS011;5580;50.106;8.702;2024-03-02T05:22:18;32.73;;;19.57;;
11054;SDS011;5580;50.106;8.702;2024-03-02T05:24:43;31.17;;;20.20;;
11054;SDS011;5580;50.106;8.702;2024-03-02T05:27:09;30.03;;;20.03;;
11054;SDS011;5580;50.106;8.702;2024-03-02T05:29:34;32.07;;;20.50;;
11054;SDS011;5580;50.106;8.702;2024-03-02T05:32:00;31.27;;;19.97;;
11054;SDS011;5580;50.106;8.702;2024-03-02T05:34:25;32.87;;;20.30;;
11054;SDS011;5580;50.106;8.702;2024-03-02T05:36:51;30.37;;;19.87;;
11054;SDS011;5580;50.106;8.702;2024-03-02T05:39:16;30.43;;;19.90;;
11054;SDS011;5580;50.106;8.702;2024-03-02T05:41:42;29.40;;;19.33;;
11054;SDS011;5580;50.106;8.702;2024-03-02T05:44:07;30.77;;;19.13;;
11054;SDS011;5580;50.106;8.702;2024-03-02T05:46:33;30.17;;;20.10;;
11054;SDS011;5580;50.106;8.702;2024-03-02T05:48:59;31.80;;;19.70;;
11054;SDS011;5580;50.106;8.702;2024-03-02T05:51:25;29.13;;;19.20;;
11054;SDS011;5580;50.106;8.702;2024-03-02T05:53:52;28.80;;;18.70;;
11054;SDS011;5580;50.106;8.702;2024-03-02T05:56:17;29.37;;;19.03;;
11054;SDS011;5580;50.106;8.702;2024-03-02T05:58:43;33.83;;;20.63;;
11054;SDS011;5580;50.106;8.702;2024-03-02T06:01:22;30.27;;;19.23;;
11054;SDS011;5580;50.106;8.702;2024-03-02T06:03:53;30.97;;;19.03;;
11054;SDS011;5580;50.106;8.702;2024-03-02T06:06:20;32.30;;;20.70;;
11054;SDS011;5580;50.106;8.702;2024-03-02T06:08:46;32.50;;;20.23;;
11054;SDS011;5580;50.106;8.702;2024-03-02T06:11:11;32.10;;;19.53;;
11054;SDS011;5580;50.106;8.702;2024-03-02T06:13:37;34.97;;;20.00;;
11054;SDS011;5580;50.106;8.702;2024-03-02T06:16:02;29.83;;;19.47;;
11054;SDS011;5580;50.106;8.702;2024-03-02T06:18:28;29.10;;;18.60;;
11054;SDS011;5580;50.106;8.702;2024-03-02T06:20:54;29.60;;;19.13;;
11054;SDS011;5580;50.106;8.702;2024-03-02T06:23:19;31.17;;;18.97;;
11054;SDS011;5580;50.106;8.702;2024-03-02T06:25:45;31.57;;;19.30;;
11054;SDS011;5580;50.106;8.702;2024-03-02T06:28:10;29.07;;;19.43;;
11054;SDS011;5580;50.106;8.702;2024-03-02T06:30:36;30.37;;;19.70;;
11054;SDS011;5580;50.106;8.702;2024-03-02T06:33:01;30.23;;;19.47;;
11054;SDS011;5580;50.106;8.702;2024-03-02T06:35:28;29.17;;;18.97;;
11054;SDS011;5580;50.106;8.702;2024-03-02T06:37:54;30.70;;;19.80;;
11054;SDS011;5580;50.106;8.702;2024-03-02T06:40:20;29.90;;;19.80;;
11054;SDS011;5580;50.106;8.702;2024-03-02T06:42:46;31.73;;;19.53;;
11054;SDS011;5580;50.106;8.702;2024-03-02T06:45:12;32.10;;;20.57;;
11054;SDS011;5580;50.106;8.702;2024-03-02T06:47:37;30.60;;;19.50;;
11054;SDS011;5580;50.106;8.702;2024-03-02T06:50:03;32.63;;;20.63;;
11054;SDS011;5580;50.106;8.702;2024-03-02T06:52:29;31.40;;;22.20;;
11054;SDS011;5580;50.106;8.702;2024-03-02T06:54:55;31.33;;;20.70;;
11054;SDS011;5580;50.106;8.702;2024-03-02T06:57:20;31.40;;;20.87;;
11054;SDS011;5580;50.106;8.702;2024-03-02T06:59:46;28.37;;;19.43;;
11054;SDS011;5580;50.106;8.702;2024-03-02T07:02:13;30.53;;;19.97;;
11054;SDS011;5580;50.106;8.702;2024-03-02T07:04:39;33.53;;;19.47;;
11054;SDS011;5580;50.106;8.702;2024-03-02T07:07:04;32.20;;;19.47;;
11054;SDS011;5580;50.106;8.702;2024-03-02T07:09:30;30.73;;;19.87;;
11054;SDS011;5580;50.106;8.702;2024-03-02T07:11:55;34.53;;;20.60;;
11054;SDS011;5580;50.106;8.702;2024-03-02T07:14:21;33.00;;;19.93;;
11054;SDS011;5580;50.106;8.702;2024-03-02T07:17:02;30.53;;;20.07;;
11054;SDS011;5580;50.106;8.702;2024-03-02T07:19:28;33.03;;;21.07;;
11054;SDS011;5580;50.106;8.702;2024-03-02T07:21:53;33.03;;;21.00;;
11054;SDS011;5580;50.106;8.702;2024-03-02T07:24:19;38.17;;;21.17;;
11054;SDS011;5580;50.106;8.702;2024-03-02T07:26:44;34.60;;;21.20;;
11054;SDS011;5580;50.106;8.702;2024-03-02T07:29:10;34.00;;;21.87;;
11054;SDS011;5580;50.106;8.702;2024-03-02T07:31:36;32.27;;;20.70;;
11054;SDS011;5580;50.106;8.702;2024-03-02T07:34:01;31.47;;;21.00;;
11054;SDS011;5580;50.106;8.702;2024-03-02T07:36:27;30.10;;;19.40;;
11054;SDS011;5580;50.106;8.702;2024-03-02T07:38:53;32.43;;;20.60;;
11054;SDS011;5580;50.106;8.702;2024-03-02T07:41:19;31.20;;;20.27;;
11054;SDS011;5580;50.106;8.702;2024-03-02T07:43:45;32.27;;;20.30;;
11054;SDS011;5580;50.106;8.702;2024-03-02T07:46:11;30.00;;;20.10;;
11054;SDS011;5580;50.106;8.702;2024-03-02T07:48:36;33.90;;;20.40;;
11054;SDS011;5580;50.106;8.702;2024-03-02T07:51:02;30.57;;;20.17;;
11054;SDS011;5580;50.106;8.702;2024-03-02T07:53:28;32.00;;;19.73;;
11054;SDS011;5580;50.106;8.702;2024-03-02T07:55:54;31.13;;;20.10;;
11054;SDS011;5580;50.106;8.702;2024-03-02T07:58:21;29.33;;;19.90;;
11054;SDS011;5580;50.106;8.702;2024-03-02T08:00:47;31.97;;;19.83;;
11054;SDS011;5580;50.106;8.702;2024-03-02T08:03:13;32.67;;;19.13;;
11054;SDS011;5580;50.106;8.702;2024-03-02T08:05:39;33.30;;;20.80;;
11054;SDS011;5580;50.106;8.702;2024-03-02T08:08:05;30.43;;;19.50;;
11054;SDS011;5580;50.106;8.702;2024-03-02T08:10:31;26.97;;;17.70;;
11054;SDS011;5580;50.106;8.702;2024-03-02T08:12:56;30.83;;;18.87;;
11054;SDS011;5580;50.106;8.702;2024-03-02T08:15:22;29.10;;;18.73;;
11054;SDS011;5580;50.106;8.702;2024-03-02T08:17:47;28.10;;;18.57;;
11054;SDS011;5580;50.106;8.702;2024-03-02T08:20:14;29.17;;;18.47;;
11054;SDS011;5580;50.106;8.702;2024-03-02T08:22:40;27.70;;;18.00;;
11054;SDS011;5580;50.106;8.702;2024-03-02T08:25:05;28.57;;;18.17;;
11054;SDS011;5580;50.106;8.702;2024-03-02T08:27:32;27.07;;;17.53;;
11054;SDS011;5580;50.106;8.702;2024-03-02T08:29:58;28.23;;;18.23;;
11054;SDS011;5580;50.106;8.702;2024-03-02T08:32:24;25.80;;;17.33;;
11054;SDS011;5580;50.106;8.702;2024-03-02T08:34:49;28.90;;;17.70;;
11054;SDS011;5580;50.106;8.702;2024-03-02T08:37:15;27.30;;;16.90;;
11054;SDS011;5580;50.106;8.702;2024-03-02T08:39:40;27.97;;;17.50;;
11054;SDS011;5580;50.106;8.702;2024-03-02T08:42:06;29.30;;;17.87;;
11054;SDS011;5580;50.106;8.702;2024-03-02T08:44:32;28.00;;;17.23;;
11054;SDS011;5580;50.106;8.702;2024-03-02T08:46:58;25.87;;;16.50;;
11054;SDS011;5580;50.106;8.702;2024-03-02T08:49:24;25.83;;;16.30;;
11054;SDS011;5580;50.106;8.702;2024-03-02T08:51:49;24.83;;;16.63;;
11054;SDS011;5580;50.106;8.702;2024-03-02T08:54:20;27.07;;;16.77;;
11054;SDS011;5580;50.106;8.702;2024-03-02T08:56:46;25.30;;;16.93;;
11054;SDS011;5580;50.106;8.702;2024-03-02T08:59:12;27.03;;;17.70;;
11054;SDS011;5580;50.106;8.702;2024-03-02T09:01:38;25.60;;;16.63;;
11054;SDS011;5580;50.106;8.702;2024-03-02T09:04:06;29.00;;;17.23;;
11054;SDS011;5580;50.106;8.702;2024-03-02T09:06:33;28.07;;;17.37;;
11054;SDS011;5580;50.106;8.702;2024-03-02T09:08:59;24.37;;;16.57;;
11054;SDS011;5580;50.106;8.702;2024-03-02T09:11:25;27.27;;;17.60;;
11054;SDS011;5580;50.106;8.702;2024-03-02T09:13:51;26.13;;;16.77;;
11054;SDS011;5580;50.106;8.702;2024-03-02T09:16:18;27.03;;;16.47;;
11054;SDS011;5580;50.106;8.702;2024-03-02T09:18:44;27.87;;;16.87;;
11054;SDS011;5580;50.106;8.702;2024-03-02T09:21:10;27.67;;;17.03;;
11054;SDS011;5580;50.106;8.702;2024-03-02T09:23:35;24.40;;;16.63;;
11054;SDS011;5580;50.106;8.702;2024-03-02T09:26:01;25.43;;;16.73;;
11054;SDS011;5580;50.106;8.702;2024-03-02T09:28:26;25.77;;;16.57;;
11054;SDS011;5580;50.106;8.702;2024-03-02T09:30:52;25.30;;;17.23;;
11054;SDS011;5580;50.106;8.702;2024-03-02T09:33:17;27.40;;;17.27;;
11054;SDS011;5580;50.106;8.702;2024-03-02T09:35:43;25.00;;;16.20;;
11054;SDS011;5580;50.106;8.702;2024-03-02T09:38:08;24.20;;;17.03;;
11054;SDS011;5580;50.106;8.702;2024-03-02T09:40:34;24.70;;;16.03;;
11054;SDS011;5580;50.106;8.702;2024-03-02T09:43:01;26.13;;;15.90;;
11054;SDS011;5580;50.106;8.702;2024-03-02T09:45:28;23.43;;;16.13;;
11054;SDS011;5580;50.106;8.702;2024-03-02T09:47:54;23.03;;;15.30;;
11054;SDS011;5580;50.106;8.702;2024-03-02T09:50:20;24.47;;;16.03;;
11054;SDS011;5580;50.106;8.702;2024-03-02T09:52:49;23.33;;;14.80;;
11054;SDS011;5580;50.106;8.702;2024-03-02T09:55:17;22.80;;;15.50;;
11054;SDS011;5580;50.106;8.702;2024-03-02T09:57:44;22.70;;;15.80;;
11054;SDS011;5580;50.106;8.702;2024-03-02T10:00:11;23.13;;;15.23;;
11054;SDS011;5580;50.106;8.702;2024-03-02T10:02:39;25.33;;;14.83;;
11054;SDS011;5580;50.106;8.702;2024-03-02T10:05:06;22.77;;;14.70;;
11054;SDS011;5580;50.106;8.702;2024-03-02T10:07:33;23.73;;;15.57;;
11054;SDS011;5580;50.106;8.702;2024-03-02T10:09:58;23.77;;;14.33;;
11054;SDS011;5580;50.106;8.702;2024-03-02T10:12:40;24.13;;;14.83;;
11054;SDS011;5580;50.106;8.702;2024-03-02T10:15:06;23.37;;;16.10;;
11054;SDS011;5580;50.106;8.702;2024-03-02T10:17:32;23.80;;;14.97;;
11054;SDS011;5580;50.106;8.702;2024-03-02T10:19:58;23.83;;;14.73;;
11054;SDS011;5580;50.106;8.702;2024-03-02T10:22:23;22.93;;;14.97;;
11054;SDS011;5580;50.106;8.702;2024-03-02T10:24:49;21.53;;;14.60;;
11054;SDS011;5580;50.106;8.702;2024-03-02T10:29:42;24.47;;;15.77;;
11054;SDS011;5580;50.106;8.702;2024-03-02T10:32:10;28.40;;;15.40;;
11054;SDS011;5580;50.106;8.702;2024-03-02T10:34:36;22.87;;;15.03;;
11054;SDS011;5580;50.106;8.702;2024-03-02T10:37:05;27.87;;;15.57;;
11054;SDS011;5580;50.106;8.702;2024-03-02T10:39:31;21.70;;;14.67;;
11054;SDS011;5580;50.106;8.702;2024-03-02T10:41:57;23.77;;;14.57;;
11054;SDS011;5580;50.106;8.702;2024-03-02T10:44:23;20.50;;;13.57;;
11054;SDS011;5580;50.106;8.702;2024-03-02T10:46:51;17.60;;;11.97;;
11054;SDS011;5580;50.106;8.702;2024-03-02T10:49:19;24.13;;;14.47;;
11054;SDS011;5580;50.106;8.702;2024-03-02T10:51:45;23.70;;;13.67;;
11054;SDS011;5580;50.106;8.702;2024-03-02T10:54:11;23.07;;;14.83;;
11054;SDS011;5580;50.106;8.702;2024-03-02T10:56:40;20.57;;;13.30;;
11054;SDS011;5580;50.106;8.702;2024-03-02T11:01:35;21.93;;;13.70;;
11054;SDS011;5580;50.106;8.702;2024-03-02T11:04:04;22.57;;;13.67;;
11054;SDS011;5580;50.106;8.702;2024-03-02T11:06:33;20.27;;;13.77;;
11054;SDS011;5580;50.106;8.702;2024-03-02T11:09:05;22.77;;;13.87;;
11054;SDS011;5580;50.106;8.702;2024-03-02T11:11:36;23.50;;;13.37;;
11054;SDS011;5580;50.106;8.702;2024-03-02T11:14:06;23.43;;;15.20;;
11054;SDS011;5580;50.106;8.702;2024-03-02T11:16:36;21.77;;;14.43;;
11054;SDS011;5580;50.106;8.702;2024-03-02T11:19:04;20.00;;;13.37;;
11054;SDS011;5580;50.106;8.702;2024-03-02T11:21:32;22.37;;;14.37;;
11054;SDS011;5580;50.106;8.702;2024-03-02T11:23:59;19.10;;;13.10;;
11054;SDS011;5580;50.106;8.702;2024-03-02T11:26:24;21.23;;;12.47;;
11054;SDS011;5580;50.106;8.702;2024-03-02T11:28:50;19.30;;;12.53;;
11054;SDS011;5580;50.106;8.702;2024-03-02T11:31:16;18.00;;;12.27;;
11054;SDS011;5580;50.106;8.702;2024-03-02T11:33:42;19.97;;;12.03;;
11054;SDS011;5580;50.106;8.702;2024-03-02T11:36:08;17.57;;;11.70;;
11054;SDS011;5580;50.106;8.702;2024-03-02T11:38:34;18.53;;;12.13;;
11054;SDS011;5580;50.106;8.702;2024-03-02T11:41:10;18.30;;;11.87;;
11054;SDS011;5580;50.106;8.702;2024-03-02T11:43:39;18.73;;;11.90;;
11054;SDS011;5580;50.106;8.702;2024-03-02T11:46:05;18.87;;;12.07;;
11054;SDS011;5580;50.106;8.702;2024-03-02T11:48:34;16.90;;;10.47;;
11054;SDS011;5580;50.106;8.702;2024-03-02T11:51:01;17.33;;;10.30;;
11054;SDS011;5580;50.106;8.702;2024-03-02T11:53:27;15.67;;;10.33;;
11054;SDS011;5580;50.106;8.702;2024-03-02T11:55:59;15.07;;;9.90;;
11054;SDS011;5580;50.106;8.702;2024-03-02T11:58:27;16.23;;;10.40;;
11054;SDS011;5580;50.106;8.702;2024-03-02T12:00:53;15.10;;;9.87;;
11054;SDS011;5580;50.106;8.702;2024-03-02T12:03:21;17.97;;;9.83;;
11054;SDS011;5580;50.106;8.702;2024-03-02T12:05:48;19.30;;;9.80;;
11054;SDS011;5580;50.106;8.702;2024-03-02T12:08:15;16.97;;;10.63;;
11054;SDS011;5580;50.106;8.702;2024-03-02T12:10:41;17.83;;;10.47;;
11054;SDS011;5580;50.106;8.702;2024-03-02T12:13:07;16.00;;;10.00;;
11054;SDS011;5580;50.106;8.702;2024-03-02T12:15:35;15.30;;;10.10;;
11054;SDS011;5580;50.106;8.702;2024-03-02T12:18:04;17.90;;;10.57;;
11054;SDS011;5580;50.106;8.702;2024-03-02T12:20:31;16.17;;;10.03;;
11054;SDS011;5580;50.106;8.702;2024-03-02T12:22:58;15.53;;;9.50;;
11054;SDS011;5580;50.106;8.702;2024-03-02T12:25:25;12.83;;;8.60;;
11054;SDS011;5580;50.106;8.702;2024-03-02T12:27:53;14.20;;;8.97;;
11054;SDS011;5580;50.106;8.702;2024-03-02T12:30:20;14.43;;;8.80;;
11054;SDS011;5580;50.106;8.702;2024-03-02T12:32:46;13.43;;;8.00;;
11054;SDS011;5580;50.106;8.702;2024-03-02T12:35:12;12.90;;;8.10;;
11054;SDS011;5580;50.106;8.702;2024-03-02T12:37:44;14.73;;;8.13;;
11054;SDS011;5580;50.106;8.702;2024-03-02T12:40:11;15.10;;;8.10;;
11054;SDS011;5580;50.106;8.702;2024-03-02T12:42:38;12.47;;;7.87;;
11054;SDS011;5580;50.106;8.702;2024-03-02T12:45:04;13.37;;;7.73;;
11054;SDS011;5580;50.106;8.702;2024-03-02T12:47:36;11.50;;;7.03;;
11054;SDS011;5580;50.106;8.702;2024-03-02T12:50:04;12.80;;;7.10;;
11054;SDS011;5580;50.106;8.702;2024-03-02T12:52:30;15.67;;;7.50;;
11054;SDS011;5580;50.106;8.702;2024-03-02T12:54:59;12.43;;;7.30;;
11054;SDS011;5580;50.106;8.702;2024-03-02T12:57:29;13.47;;;7.43;;
11054;SDS011;5580;50.106;8.702;2024-03-02T13:00:03;12.60;;;7.60;;
11054;SDS011;5580;50.106;8.702;2024-03-02T13:02:34;12.93;;;7.70;;
11054;SDS011;5580;50.106;8.702;2024-03-02T13:05:01;12.37;;;7.10;;
11054;SDS011;5580;50.106;8.702;2024-03-02T13:07:27;12.37;;;7.20;;
11054;SDS011;5580;50.106;8.702;2024-03-02T13:09:53;9.57;;;6.20;;
11054;SDS011;5580;50.106;8.702;2024-03-02T13:12:23;11.67;;;6.00;;
11054;SDS011;5580;50.106;8.702;2024-03-02T13:14:51;9.47;;;5.90;;
11054;SDS011;5580;50.106;8.702;2024-03-02T13:17:17;11.13;;;6.07;;
11054;SDS011;5580;50.106;8.702;2024-03-02T13:19:56;12.90;;;6.00;;
11054;SDS011;5580;50.106;8.702;2024-03-02T13:22:22;10.07;;;5.97;;
11054;SDS011;5580;50.106;8.702;2024-03-02T13:24:50;9.90;;;6.00;;
11054;SDS011;5580;50.106;8.702;2024-03-02T13:27:16;11.20;;;6.63;;
11054;SDS011;5580;50.106;8.702;2024-03-02T13:29:44;10.87;;;6.13;;
11054;SDS011;5580;50.106;8.702;2024-03-02T13:32:16;9.93;;;6.30;;
11054;SDS011;5580;50.106;8.702;2024-03-02T13:34:43;10.20;;;6.07;;
11054;SDS011;5580;50.106;8.702;2024-03-02T13:37:08;11.43;;;6.33;;
11054;SDS011;5580;50.106;8.702;2024-03-02T13:39:34;10.07;;;5.97;;
11054;SDS011;5580;50.106;8.702;2024-03-02T13:42:08;9.90;;;6.00;;
11054;SDS011;5580;50.106;8.702;2024-03-02T13:44:35;10.37;;;6.30;;
11054;SDS011;5580;50.106;8.702;2024-03-02T13:47:01;9.67;;;5.83;;
11054;SDS011;5580;50.106;8.702;2024-03-02T13:49:27;10.60;;;6.00;;
11054;SDS011;5580;50.106;8.702;2024-03-02T13:51:58;11.77;;;6.17;;
11054;SDS011;5580;50.106;8.702;2024-03-02T13:54:25;8.07;;;5.63;;
11054;SDS011;5580;50.106;8.702;2024-03-02T13:56:51;9.33;;;5.83;;
11054;SDS011;5580;50.106;8.702;2024-03-02T13:59:17;8.03;;;5.20;;
11054;SDS011;5580;50.106;8.702;2024-03-02T14:01:43;9.07;;;5.50;;
11054;SDS011;5580;50.106;8.702;2024-03-02T14:04:09;9.53;;;5.50;;
11054;SDS011;5580;50.106;8.702;2024-03-02T14:06:35;9.70;;;5.10;;
11054;SDS011;5580;50.106;8.702;2024-03-02T14:09:00;9.30;;;4.80;;
11054;SDS011;5580;50.106;8.702;2024-03-02T14:11:26;7.73;;;4.87;;
11054;SDS011;5580;50.106;8.702;2024-03-02T14:13:52;9.40;;;4.83;;
11054;SDS011;5580;50.106;8.702;2024-03-02T14:16:19;7.83;;;4.97;;
11054;SDS011;5580;50.106;8.702;2024-03-02T14:18:45;7.10;;;4.83;;
11054;SDS011;5580;50.106;8.702;2024-03-02T14:21:11;10.00;;;5.10;;
11054;SDS011;5580;50.106;8.702;2024-03-02T14:23:36;7.43;;;4.60;;
11054;SDS011;5580;50.106;8.702;2024-03-02T14:26:02;6.17;;;4.47;;
11054;SDS011;5580;50.106;8.702;2024-03-02T14:28:28;7.20;;;4.50;;
11054;SDS011;5580;50.106;8.702;2024-03-02T14:30:54;7.23;;;4.60;;
11054;SDS011;5580;50.106;8.702;2024-03-02T14:33:20;7.67;;;4.80;;
11054;SDS011;5580;50.106;8.702;2024-03-02T14:35:46;7.90;;;4.80;;
11054;SDS011;5580;50.106;8.702;2024-03-02T14:38:12;6.93;;;4.50;;
11054;SDS011;5580;50.106;8.702;2024-03-02T14:40:38;5.20;;;4.30;;
11054;SDS011;5580;50.106;8.702;2024-03-02T14:43:03;6.67;;;4.17;;
11054;SDS011;5580;50.106;8.702;2024-03-02T14:45:29;5.63;;;4.03;;
11054;SDS011;5580;50.106;8.702;2024-03-02T14:47:54;8.43;;;4.87;;
11054;SDS011;5580;50.106;8.702;2024-03-02T14:50:21;8.30;;;5.27;;